createdAt,value
2023-03-05T00:01:50.469Z,-2.70
2023-03-05T00:04:19.414Z,-2.70
2023-03-05T00:06:48.566Z,-2.71
2023-03-05T00:09:18.998Z,-2.74
2023-03-05T00:11:48.055Z,-2.75
2023-03-05T00:14:17.089Z,-2.72
2023-03-05T00:16:46.039Z,-2.73
2023-03-05T00:19:14.958Z,-2.74
2023-03-05T00:21:44.148Z,-2.74
2023-03-05T00:24:16.829Z,-2.74
2023-03-05T00:26:47.941Z,-2.73
2023-03-05T00:29:19.610Z,-2.74
2023-03-05T00:31:48.774Z,-2.80
2023-03-05T00:34:19.892Z,-2.79
2023-03-05T00:36:52.214Z,-2.79
2023-03-05T00:39:22.948Z,-2.81
2023-03-05T00:41:53.897Z,-2.81
2023-03-05T00:44:22.916Z,-2.82
2023-03-05T00:46:52.886Z,-2.85
2023-03-05T00:49:21.995Z,-2.83
2023-03-05T00:51:50.932Z,-2.86
2023-03-05T00:54:19.902Z,-2.85
2023-03-05T00:56:49.344Z,-2.82
2023-03-05T00:59:19.897Z,-2.83
2023-03-05T01:01:48.876Z,-2.87
2023-03-05T01:04:17.812Z,-2.90
2023-03-05T01:06:46.927Z,-2.84
2023-03-05T01:09:16.279Z,-2.89
2023-03-05T01:11:45.182Z,-2.92
2023-03-05T01:14:14.702Z,-2.93
2023-03-05T01:16:45.097Z,-2.90
2023-03-05T01:19:15.062Z,-2.88
2023-03-05T01:21:44.458Z,-2.91
2023-03-05T01:24:13.373Z,-2.92
2023-03-05T01:26:42.346Z,-2.95
2023-03-05T01:29:11.508Z,-2.98
2023-03-05T01:31:40.612Z,-2.98
2023-03-05T01:34:11.138Z,-2.97
2023-03-05T01:36:42.339Z,-2.99
2023-03-05T01:39:12.957Z,-3.03
2023-03-05T01:41:42.081Z,-3.00
2023-03-05T01:44:23.156Z,-3.04
2023-03-05T01:46:52.232Z,-3.04
2023-03-05T01:49:26.222Z,-3.05
2023-03-05T01:52:09.138Z,-3.04
2023-03-05T01:54:41.878Z,-3.05
2023-03-05T01:57:14.933Z,-3.04
2023-03-05T01:59:46.600Z,-3.06
2023-03-05T02:02:15.914Z,-3.08
2023-03-05T02:04:52.084Z,-3.08
2023-03-05T02:07:21.403Z,-3.04
2023-03-05T02:09:50.400Z,-3.06
2023-03-05T02:12:20.252Z,-3.11
2023-03-05T02:15:10.875Z,-3.11
2023-03-05T02:17:39.873Z,-3.12
2023-03-05T02:20:12.915Z,-3.11
2023-03-05T02:22:43.418Z,-3.15
2023-03-05T02:25:17.431Z,-3.16
2023-03-05T02:27:52.764Z,-3.20
2023-03-05T02:30:22.010Z,-3.26
2023-03-05T02:32:51.132Z,-3.33
2023-03-05T02:35:21.772Z,-3.38
2023-03-05T02:37:52.426Z,-3.47
2023-03-05T02:40:21.725Z,-3.55
2023-03-05T02:42:50.883Z,-3.59
2023-03-05T02:45:20.321Z,-3.65
2023-03-05T02:47:49.315Z,-3.71
2023-03-05T02:50:18.286Z,-3.70
2023-03-05T02:52:47.263Z,-3.70
2023-03-05T02:55:20.013Z,-3.71
2023-03-05T02:57:49.351Z,-3.77
2023-03-05T03:00:19.099Z,-3.77
2023-03-05T03:02:48.040Z,-3.81
2023-03-05T03:05:17.361Z,-3.83
2023-03-05T03:07:46.560Z,-3.85
2023-03-05T03:10:15.656Z,-3.87
2023-03-05T03:12:46.893Z,-3.90
2023-03-05T03:15:18.132Z,-3.94
2023-03-05T03:17:47.499Z,-3.99
2023-03-05T03:20:17.940Z,-4.06
2023-03-05T03:22:47.648Z,-4.13
2023-03-05T03:25:17.915Z,-4.18
2023-03-05T03:27:48.273Z,-4.26
2023-03-05T03:30:17.679Z,-4.33
2023-03-05T03:32:46.672Z,-4.29
2023-03-05T03:35:15.669Z,-4.25
2023-03-05T03:37:44.648Z,-4.21
2023-03-05T03:40:14.009Z,-4.26
2023-03-05T03:42:42.955Z,-4.23
2023-03-05T03:45:14.545Z,-4.14
2023-03-05T03:47:43.541Z,-4.17
2023-03-05T03:50:13.516Z,-4.15
2023-03-05T03:52:42.546Z,-4.10
2023-03-05T03:55:12.689Z,-4.00
2023-03-05T03:57:41.562Z,-3.97
2023-03-05T04:00:14.079Z,-3.95
2023-03-05T04:02:44.100Z,-3.92
2023-03-05T04:05:13.063Z,-3.88
2023-03-05T04:07:42.072Z,-3.91
2023-03-05T04:10:12.429Z,-3.90
2023-03-05T04:12:46.287Z,-3.89
2023-03-05T04:15:16.993Z,-3.89
2023-03-05T04:17:45.843Z,-3.83
2023-03-05T04:20:15.031Z,-3.82
2023-03-05T04:22:43.963Z,-3.84
2023-03-05T04:25:12.948Z,-3.79
2023-03-05T04:27:41.854Z,-3.78
2023-03-05T04:30:14.745Z,-3.74
2023-03-05T04:32:45.131Z,-3.74
2023-03-05T04:35:14.050Z,-3.71
2023-03-05T04:37:43.013Z,-3.73
2023-03-05T04:40:13.178Z,-3.69
2023-03-05T04:42:42.420Z,-3.67
2023-03-05T04:45:12.441Z,-3.64
2023-03-05T04:47:41.742Z,-3.68
2023-03-05T04:50:13.600Z,-3.63
2023-03-05T04:52:43.456Z,-3.64
2023-03-05T04:55:14.102Z,-3.63
2023-03-05T04:57:43.520Z,-3.64
2023-03-05T05:00:15.120Z,-3.62
2023-03-05T05:02:45.184Z,-3.56
2023-03-05T05:05:18.803Z,-3.57
2023-03-05T05:07:48.491Z,-3.52
2023-03-05T05:10:18.746Z,-3.51
2023-03-05T05:12:47.887Z,-3.52
2023-03-05T05:15:17.098Z,-3.46
2023-03-05T05:17:46.124Z,-3.37
2023-03-05T05:20:18.236Z,-3.34
2023-03-05T05:22:47.188Z,-3.29
2023-03-05T05:25:16.088Z,-3.27
2023-03-05T05:27:44.980Z,-3.33
2023-03-05T05:30:14.693Z,-3.27
2023-03-05T05:32:43.803Z,-3.23
2023-03-05T05:35:13.307Z,-3.17
2023-03-05T05:37:43.665Z,-3.11
2023-03-05T05:40:13.782Z,-3.05
2023-03-05T05:42:42.774Z,-3.01
2023-03-05T05:45:12.874Z,-2.96
2023-03-05T05:47:41.921Z,-2.93
2023-03-05T05:50:12.753Z,-2.92
2023-03-05T05:52:43.279Z,-2.92
2023-03-05T05:55:12.932Z,-2.88
2023-03-05T05:57:42.042Z,-2.78
2023-03-05T06:00:13.878Z,-2.75
2023-03-05T06:02:45.008Z,-2.76
2023-03-05T06:05:16.131Z,-2.77
2023-03-05T06:07:46.411Z,-2.72
2023-03-05T06:10:15.662Z,-2.62
2023-03-05T06:12:44.863Z,-2.50
2023-03-05T06:15:13.915Z,-2.42
2023-03-05T06:17:42.828Z,-2.36
2023-03-05T06:20:13.348Z,-2.31
2023-03-05T06:22:42.379Z,-2.26
2023-03-05T06:25:13.275Z,-2.16
2023-03-05T06:27:42.407Z,-2.10
2023-03-05T06:30:13.360Z,-2.05
2023-03-05T06:32:42.424Z,-1.97
2023-03-05T06:35:11.964Z,-1.91
2023-03-05T06:37:41.027Z,-1.81
2023-03-05T06:40:13.277Z,-1.83
2023-03-05T06:42:42.734Z,-1.85
2023-03-05T06:45:12.485Z,-1.81
2023-03-05T06:47:41.467Z,-1.68
2023-03-05T06:50:11.956Z,-1.57
2023-03-05T06:52:41.806Z,-1.68
2023-03-05T06:55:16.004Z,-1.67
2023-03-05T06:57:45.489Z,-1.88
2023-03-05T07:00:19.855Z,-1.89
2023-03-05T07:02:51.899Z,-1.80
2023-03-05T07:05:21.021Z,-1.82
2023-03-05T07:07:49.962Z,-1.89
2023-03-05T07:10:21.367Z,-1.87
2023-03-05T07:12:51.031Z,-1.96
2023-03-05T07:15:19.996Z,-2.01
2023-03-05T07:17:48.954Z,-1.97
2023-03-05T07:20:18.286Z,-1.88
2023-03-05T07:22:48.535Z,-1.95
2023-03-05T07:25:21.548Z,-1.90
2023-03-05T07:27:52.343Z,-1.89
2023-03-05T07:30:21.501Z,-1.87
2023-03-05T07:32:50.616Z,-1.88
2023-03-05T07:35:20.086Z,-2.01
2023-03-05T07:37:49.027Z,-2.01
2023-03-05T07:40:18.831Z,-1.92
2023-03-05T07:42:47.891Z,-1.90
2023-03-05T07:45:27.169Z,-1.88
2023-03-05T07:47:56.304Z,-1.92
2023-03-05T07:50:25.795Z,-1.93
2023-03-05T07:52:54.786Z,-1.97
2023-03-05T07:55:23.897Z,-1.95
2023-03-05T07:57:53.279Z,-1.91
2023-03-05T08:00:22.890Z,-1.85
2023-03-05T08:02:53.339Z,-1.83
2023-03-05T08:05:22.617Z,-1.84
2023-03-05T08:07:51.632Z,-1.78
2023-03-05T08:10:20.812Z,-1.69
2023-03-05T08:12:49.867Z,-1.54
2023-03-05T08:15:18.952Z,-1.55
2023-03-05T08:17:49.647Z,-1.54
2023-03-05T08:20:21.522Z,-1.48
2023-03-05T08:22:50.552Z,-1.45
2023-03-05T08:25:21.571Z,-1.41
2023-03-05T08:27:50.614Z,-1.35
2023-03-05T08:30:23.268Z,-1.19
2023-03-05T08:32:57.517Z,-1.17
2023-03-05T08:35:28.014Z,-1.13
2023-03-05T08:37:57.695Z,-1.33
2023-03-05T08:40:31.396Z,-1.27
2023-03-05T08:43:01.019Z,-1.25
2023-03-05T08:45:30.406Z,-1.19
2023-03-05T08:48:00.055Z,-1.15
2023-03-05T08:50:33.121Z,-1.08
2023-03-05T08:53:03.475Z,-0.92
2023-03-05T08:55:32.493Z,-0.85
2023-03-05T08:58:01.551Z,-0.78
2023-03-05T09:00:30.804Z,-0.92
2023-03-05T09:02:59.858Z,-0.92
2023-03-05T09:05:30.298Z,-1.08
2023-03-05T09:08:00.513Z,-1.12
2023-03-05T09:10:29.505Z,-1.07
2023-03-05T09:12:58.549Z,-1.13
2023-03-05T09:15:27.675Z,-1.11
2023-03-05T09:17:56.839Z,-1.10
2023-03-05T09:20:26.886Z,-1.11
2023-03-05T09:22:57.574Z,-1.17
2023-03-05T09:25:26.679Z,-1.24
2023-03-05T09:27:55.928Z,-1.27
2023-03-05T09:30:25.136Z,-1.30
2023-03-05T09:32:54.381Z,-1.30
2023-03-05T09:35:23.704Z,-1.15
2023-03-05T09:37:52.738Z,-0.96
2023-03-05T09:40:23.972Z,-0.79
2023-03-05T09:43:04.868Z,-0.64
2023-03-05T09:45:41.462Z,-0.43
2023-03-05T09:48:18.965Z,-0.34
2023-03-05T09:50:52.145Z,-0.38
2023-03-05T09:53:32.681Z,-0.22
2023-03-05T09:56:11.841Z,0.01
2023-03-05T09:58:43.832Z,-0.04
2023-03-05T10:01:17.058Z,-0.08
2023-03-05T10:03:54.710Z,-0.22
2023-03-05T10:06:26.294Z,-0.29
2023-03-05T10:08:59.078Z,-0.58
2023-03-05T10:11:48.420Z,-0.86
2023-03-05T10:14:29.336Z,-1.05
2023-03-05T10:17:11.009Z,-1.08
2023-03-05T10:20:04.627Z,-1.13
2023-03-05T10:22:38.158Z,-1.25
2023-03-05T10:25:21.788Z,-1.33
2023-03-05T10:27:58.177Z,-1.32
2023-03-05T10:30:40.529Z,-1.38
2023-03-05T10:33:19.469Z,-1.47
2023-03-05T10:36:19.297Z,-1.53
2023-03-05T10:39:07.040Z,-1.60
2023-03-05T10:41:45.064Z,-1.63
2023-03-05T10:44:21.300Z,-1.72
2023-03-05T10:46:51.612Z,-1.69
2023-03-05T10:49:24.130Z,-1.67
2023-03-05T10:52:01.134Z,-1.61
2023-03-05T10:54:32.667Z,-1.52
2023-03-05T10:57:06.121Z,-1.51
2023-03-05T10:59:36.671Z,-1.43
2023-03-05T11:02:08.879Z,-1.43
2023-03-05T11:04:40.489Z,-1.37
2023-03-05T11:07:34.642Z,-1.50
2023-03-05T11:10:15.244Z,-1.61
2023-03-05T11:12:45.214Z,-1.65
2023-03-05T11:15:29.606Z,-1.63
2023-03-05T11:18:24.468Z,-1.54
2023-03-05T11:20:53.758Z,-1.70
2023-03-05T11:23:24.865Z,-1.85
2023-03-05T11:25:58.287Z,-1.98
2023-03-05T11:28:33.627Z,-1.96
2023-03-05T11:31:09.672Z,-1.75
2023-03-05T11:33:39.115Z,-1.66
2023-03-05T11:36:30.662Z,-1.53
2023-03-05T11:39:02.363Z,-1.45
2023-03-05T11:41:37.066Z,-1.52
2023-03-05T11:44:13.598Z,-1.49
2023-03-05T11:46:47.648Z,-1.38
2023-03-05T11:49:21.153Z,-1.38
2023-03-05T11:51:59.174Z,-1.34
2023-03-05T11:54:36.626Z,-1.37
2023-03-05T11:57:08.359Z,-1.36
2023-03-05T11:59:40.871Z,-1.35
2023-03-05T12:02:20.326Z,-1.16
2023-03-05T12:04:52.595Z,-1.23
2023-03-05T12:07:35.832Z,-1.40
2023-03-05T12:10:05.728Z,-1.48
2023-03-05T12:12:42.151Z,-1.48
2023-03-05T12:15:47.724Z,-1.51
2023-03-05T12:18:29.072Z,-1.57
2023-03-05T12:21:05.879Z,-1.72
2023-03-05T12:23:50.690Z,-1.85
2023-03-05T12:26:21.182Z,-1.81
2023-03-05T12:29:01.611Z,-1.73
2023-03-05T12:31:39.537Z,-1.65
2023-03-05T12:34:47.290Z,-1.65
2023-03-05T12:37:54.690Z,-1.62
2023-03-05T12:40:25.479Z,-1.63
2023-03-05T12:42:57.078Z,-1.54
2023-03-05T12:45:31.693Z,-1.66
2023-03-05T12:48:37.822Z,-1.77
2023-03-05T12:51:13.075Z,-1.83
2023-03-05T12:53:42.027Z,-1.87
2023-03-05T12:56:25.217Z,-1.82
2023-03-05T12:58:58.718Z,-1.68
2023-03-05T13:01:42.253Z,-1.86
2023-03-05T13:04:19.876Z,-1.76
2023-03-05T13:07:00.185Z,-1.78
2023-03-05T13:09:31.890Z,-1.76
2023-03-05T13:12:05.713Z,-1.79
2023-03-05T13:14:42.231Z,-1.78
2023-03-05T13:17:35.967Z,-1.74
2023-03-05T13:20:28.443Z,-1.77
2023-03-05T13:23:16.245Z,-1.97
2023-03-05T13:25:45.955Z,-2.18
2023-03-05T13:28:17.128Z,-2.25
2023-03-05T13:30:58.119Z,-2.31
2023-03-05T13:33:30.722Z,-2.38
2023-03-05T13:36:00.207Z,-2.34
2023-03-05T13:38:35.909Z,-2.40
2023-03-05T13:41:32.794Z,-2.32
2023-03-05T13:44:03.653Z,-2.39
2023-03-05T13:46:40.010Z,-2.35
2023-03-05T13:49:20.584Z,-2.35
2023-03-05T13:51:51.603Z,-2.35
2023-03-05T13:54:23.651Z,-2.39
2023-03-05T13:56:55.603Z,-2.45
2023-03-05T13:59:28.373Z,-2.60
2023-03-05T14:02:01.982Z,-2.67
2023-03-05T14:04:32.595Z,-2.75
2023-03-05T14:07:04.765Z,-2.84
2023-03-05T14:09:48.958Z,-2.91
2023-03-05T14:12:30.516Z,-2.90
2023-03-05T14:15:02.449Z,-2.95
2023-03-05T14:17:39.453Z,-3.07
2023-03-05T14:20:19.146Z,-3.07
2023-03-05T14:22:49.348Z,-3.10
2023-03-05T14:25:33.994Z,-3.12
2023-03-05T14:28:05.270Z,-3.14
2023-03-05T14:30:36.371Z,-3.09
2023-03-05T14:33:06.631Z,-3.14
2023-03-05T14:35:37.568Z,-3.10
2023-03-05T14:38:23.432Z,-3.12
2023-03-05T14:40:54.151Z,-3.10
2023-03-05T14:43:23.495Z,-3.13
2023-03-05T14:45:52.660Z,-3.15
2023-03-05T14:48:21.684Z,-3.16
2023-03-05T14:50:56.479Z,-3.20
2023-03-05T14:53:29.092Z,-3.19
2023-03-05T14:55:59.510Z,-3.21
2023-03-05T14:58:32.455Z,-3.19
2023-03-05T15:01:02.309Z,-3.23
2023-03-05T15:03:33.254Z,-3.27
2023-03-05T15:06:03.318Z,-3.22
2023-03-05T15:08:33.904Z,-3.22
2023-03-05T15:11:07.041Z,-3.10
2023-03-05T15:13:36.811Z,-3.16
2023-03-05T15:16:08.073Z,-3.21
2023-03-05T15:18:37.523Z,-3.17
2023-03-05T15:21:07.270Z,-3.22
2023-03-05T15:23:38.431Z,-3.24
2023-03-05T15:26:13.124Z,-3.32
2023-03-05T15:28:42.726Z,-3.37
2023-03-05T15:31:12.408Z,-3.34
2023-03-05T15:33:42.046Z,-3.37
2023-03-05T15:36:11.373Z,-3.40
2023-03-05T15:38:41.811Z,-3.46
2023-03-05T15:41:12.556Z,-3.44
2023-03-05T15:43:41.632Z,-3.45
2023-03-05T15:46:10.650Z,-3.50
2023-03-05T15:48:39.689Z,-3.45
2023-03-05T15:51:09.262Z,-3.38
2023-03-05T15:53:38.217Z,-3.34
2023-03-05T15:56:08.066Z,-3.29
2023-03-05T15:58:39.700Z,-3.29
2023-03-05T16:01:14.631Z,-3.30
2023-03-05T16:03:48.835Z,-3.24
2023-03-05T16:06:20.728Z,-3.26
2023-03-05T16:08:51.511Z,-3.31
2023-03-05T16:11:22.480Z,-3.34
2023-03-05T16:13:55.304Z,-3.38
2023-03-05T16:16:25.854Z,-3.39
2023-03-05T16:18:56.453Z,-3.40
2023-03-05T16:21:25.822Z,-3.46
2023-03-05T16:23:55.397Z,-3.43
2023-03-05T16:26:24.504Z,-3.42
2023-03-05T16:28:55.170Z,-3.38
2023-03-05T16:31:24.310Z,-3.33
2023-03-05T16:33:53.625Z,-3.30
2023-03-05T16:36:25.888Z,-3.34
2023-03-05T16:38:56.486Z,-3.35
2023-03-05T16:41:26.621Z,-3.28
2023-03-05T16:44:00.523Z,-3.31
2023-03-05T16:46:33.254Z,-3.37
2023-03-05T16:49:06.402Z,-3.28
2023-03-05T16:51:44.087Z,-3.16
2023-03-05T16:54:13.926Z,-3.14
2023-03-05T16:56:43.271Z,-3.03
2023-03-05T16:59:15.244Z,-3.12
2023-03-05T17:01:46.918Z,-3.15
2023-03-05T17:04:15.993Z,-3.20
2023-03-05T17:06:47.326Z,-3.28
2023-03-05T17:09:19.493Z,-3.31
2023-03-05T17:11:49.019Z,-3.35
2023-03-05T17:14:19.691Z,-3.37
2023-03-05T17:16:48.899Z,-3.36
2023-03-05T17:19:18.438Z,-3.30
2023-03-05T17:21:50.834Z,-3.31
2023-03-05T17:24:22.316Z,-3.34
2023-03-05T17:26:52.105Z,-3.31
2023-03-05T17:29:23.529Z,-3.37
2023-03-05T17:31:53.915Z,-3.35
2023-03-05T17:34:33.770Z,-3.39
2023-03-05T17:37:06.274Z,-3.44
2023-03-05T17:39:35.495Z,-3.47
2023-03-05T17:42:04.695Z,-3.49
2023-03-05T17:44:35.101Z,-3.50
2023-03-05T17:47:04.299Z,-3.47
2023-03-05T17:49:33.468Z,-3.43
2023-03-05T17:52:03.097Z,-3.45
2023-03-05T17:54:32.566Z,-3.47
2023-03-05T17:57:02.009Z,-3.50
2023-03-05T17:59:31.827Z,-3.52
2023-03-05T18:02:02.944Z,-3.53
2023-03-05T18:04:36.354Z,-3.48
2023-03-05T18:07:09.108Z,-3.55
2023-03-05T18:09:38.141Z,-3.57
2023-03-05T18:12:07.685Z,-3.55
2023-03-05T18:14:37.003Z,-3.53
2023-03-05T18:17:07.521Z,-3.53
2023-03-05T18:19:36.726Z,-3.62
2023-03-05T18:22:06.493Z,-3.75
2023-03-05T18:24:35.928Z,-3.89
2023-03-05T18:27:05.068Z,-4.00
2023-03-05T18:29:34.387Z,-4.05
2023-03-05T18:32:14.199Z,-4.17
2023-03-05T18:34:44.196Z,-4.20
2023-03-05T18:37:13.363Z,-4.24
2023-03-05T18:39:42.911Z,-4.29
2023-03-05T18:42:14.211Z,-4.38
2023-03-05T18:44:43.663Z,-4.44
2023-03-05T18:47:14.216Z,-4.51
2023-03-05T18:49:43.241Z,-4.59
2023-03-05T18:52:13.232Z,-4.66
2023-03-05T18:54:42.474Z,-4.66
2023-03-05T18:57:11.605Z,-4.75
2023-03-05T18:59:40.669Z,-4.83
2023-03-05T19:02:15.779Z,-4.87
2023-03-05T19:04:44.896Z,-4.87
2023-03-05T19:07:15.332Z,-4.87
2023-03-05T19:09:58.975Z,-4.93
2023-03-05T19:12:31.914Z,-4.99
2023-03-05T19:15:01.805Z,-5.02
2023-03-05T19:17:34.714Z,-5.05
2023-03-05T19:20:07.890Z,-5.06
2023-03-05T19:22:36.909Z,-5.06
2023-03-05T19:25:06.577Z,-5.03
2023-03-05T19:27:35.730Z,-5.00
2023-03-05T19:30:05.757Z,-4.97
2023-03-05T19:32:36.490Z,-4.87
2023-03-05T19:35:06.145Z,-4.81
2023-03-05T19:37:35.074Z,-4.75
2023-03-05T19:40:04.413Z,-4.67
2023-03-05T19:42:33.499Z,-4.61
2023-03-05T19:45:03.014Z,-4.56
2023-03-05T19:47:33.252Z,-4.52
2023-03-05T19:50:04.679Z,-4.45
2023-03-05T19:52:33.830Z,-4.41
2023-03-05T19:55:02.773Z,-4.38
2023-03-05T19:57:32.006Z,-4.35
2023-03-05T20:00:00.989Z,-4.32
2023-03-05T20:02:30.011Z,-4.31
2023-03-05T20:04:59.402Z,-4.28
2023-03-05T20:07:29.967Z,-4.26
2023-03-05T20:10:00.103Z,-4.25
2023-03-05T20:12:29.222Z,-4.25
2023-03-05T20:14:58.434Z,-4.28
2023-03-05T20:17:27.364Z,-4.36
2023-03-05T20:19:59.117Z,-4.46
2023-03-05T20:22:29.570Z,-4.55
2023-03-05T20:24:58.897Z,-4.61
2023-03-05T20:27:27.937Z,-4.58
2023-03-05T20:29:57.252Z,-4.51
2023-03-05T20:32:26.699Z,-4.44
2023-03-05T20:34:56.443Z,-4.39
2023-03-05T20:38:12.845Z,-4.35
2023-03-05T20:40:42.130Z,-4.44
2023-03-05T20:43:11.215Z,-4.49
2023-03-05T20:45:40.750Z,-4.52
2023-03-05T20:48:09.954Z,-4.51
2023-03-05T20:50:38.906Z,-4.53
2023-03-05T20:53:09.952Z,-4.58
2023-03-05T20:55:38.907Z,-4.66
2023-03-05T20:58:08.099Z,-4.68
2023-03-05T21:00:37.807Z,-4.69
2023-03-05T21:03:07.377Z,-4.67
2023-03-05T21:05:37.368Z,-4.64
2023-03-05T21:08:06.788Z,-4.62
2023-03-05T21:10:39.482Z,-4.58
2023-03-05T21:13:08.498Z,-4.53
2023-03-05T21:15:37.465Z,-4.49
2023-03-05T21:18:06.670Z,-4.44
2023-03-05T21:20:35.685Z,-4.42
2023-03-05T21:23:05.110Z,-4.41
2023-03-05T21:25:34.564Z,-4.40
2023-03-05T21:28:09.457Z,-4.41
2023-03-05T21:30:42.215Z,-4.41
2023-03-05T21:33:13.445Z,-4.39
2023-03-05T21:35:43.288Z,-4.41
2023-03-05T21:38:14.274Z,-4.44
2023-03-05T21:40:45.822Z,-4.47
2023-03-05T21:43:18.798Z,-4.48
2023-03-05T21:45:48.436Z,-4.51
2023-03-05T21:48:17.960Z,-4.51
2023-03-05T21:50:48.907Z,-4.51
2023-03-05T21:53:19.376Z,-4.49
2023-03-05T21:56:22.161Z,-4.50
2023-03-05T21:58:54.736Z,-4.50
2023-03-05T22:01:24.453Z,-4.50
2023-03-05T22:03:54.146Z,-4.53
2023-03-05T22:06:24.332Z,-4.52
2023-03-05T22:08:53.260Z,-4.51
2023-03-05T22:11:22.537Z,-4.51
2023-03-05T22:13:52.861Z,-4.50
2023-03-05T22:16:24.379Z,-4.51
2023-03-05T22:18:54.146Z,-4.50
2023-03-05T22:21:25.867Z,-4.49
2023-03-05T22:23:57.352Z,-4.50
2023-03-05T22:26:27.994Z,-4.50
2023-03-05T22:28:58.314Z,-4.50
2023-03-05T22:31:28.775Z,-4.52
2023-03-05T22:33:58.333Z,-4.55
2023-03-05T22:36:27.337Z,-4.57
2023-03-05T22:38:56.250Z,-4.58
2023-03-05T22:41:25.203Z,-4.58
2023-03-05T22:43:54.098Z,-4.58
2023-03-05T22:46:26.151Z,-4.61
2023-03-05T22:48:55.772Z,-4.64
2023-03-05T22:51:24.740Z,-4.66
2023-03-05T22:53:53.673Z,-4.68
2023-03-05T22:56:23.198Z,-4.67
2023-03-05T22:58:52.252Z,-4.70
2023-03-05T23:01:23.739Z,-4.72
2023-03-05T23:04:40.341Z,-4.76
2023-03-05T23:07:12.431Z,-4.77
2023-03-05T23:09:41.592Z,-4.78
2023-03-05T23:12:11.426Z,-4.77
2023-03-05T23:14:40.419Z,-4.79
2023-03-05T23:17:10.760Z,-4.84
2023-03-05T23:19:39.994Z,-4.89
2023-03-05T23:22:10.787Z,-4.94
2023-03-05T23:24:39.963Z,-4.97
2023-03-05T23:27:09.275Z,-5.00
2023-03-05T23:30:16.207Z,-5.03
2023-03-05T23:32:49.042Z,-5.07
2023-03-05T23:35:20.162Z,-5.16
2023-03-05T23:37:49.148Z,-5.25
2023-03-05T23:40:21.636Z,-5.35
2023-03-05T23:42:51.214Z,-5.42
2023-03-05T23:45:21.286Z,-5.50
2023-03-05T23:47:53.044Z,-5.53
2023-03-05T23:50:24.341Z,-5.54
2023-03-05T23:52:55.254Z,-5.50
2023-03-05T23:55:27.107Z,-5.52
2023-03-05T23:57:56.702Z,-5.59
